»·PEaware :: N7688Q KBUR-KLAS

N7688Q :: KBUR-KLAS

FLIGHT INFORMATION

Flight Status: Arrived
Operator: Privately registered:
United States
More flights under this callsign
Pilot: Vince L. (14672)
Aircraft: BEECH AIRCRAFT SUPER KING AIR COMMUTER
(BE20)
More flights by this aircraft type
Origin: KBUR Bob Hope-Burbank
United States
Destination: KLAS McCarran Intl
United States
More flights between these airports :: More routes between these airports
Route: +VNY3 DAG CRESO3
File this flight plan on PilotEdge
Remarks: I-5 {REQUEST ILS 25R}
Altitude:
(Current/Filed)
19,000ft
Speed:
(Current/Filed)
280kts
Departed: 20-Mar-17 03:54 PM
Arrived: 20-Mar-17 05:02 PM
Distance/Time
Traveled:
194nm/1:08
Distance/Time
To Go:
Arrived

Flight Plot

Page will automatically refresh every two minutes.


Map Options




Map Legend


Flown Route
Filed Route
Departure Airport
Arrival Airport
Navaid (VOR, NDB)
Fix

Horizontal Profiles

Position Reports

Time Latitude Longitude Heading Altitude Ground
Speed
20-Mar-17 14:53 34.202976 -118.360126 67 781ft 0kts
20-Mar-17 14:54 34.202976 -118.360126 67 781ft 0kts
20-Mar-17 14:55 34.202976 -118.360126 67 781ft 0kts
20-Mar-17 14:56 34.202976 -118.360126 67 781ft 0kts
20-Mar-17 14:57 34.202976 -118.360126 67 781ft 0kts
20-Mar-17 14:58 34.202976 -118.360126 67 781ft 0kts
20-Mar-17 14:59 34.202976 -118.360126 67 781ft 0kts
20-Mar-17 15:00 34.202976 -118.360126 67 781ft 0kts
20-Mar-17 15:01 34.202976 -118.360126 67 781ft 0kts
20-Mar-17 15:02 34.202976 -118.360126 67 781ft 0kts
20-Mar-17 15:03 34.202976 -118.360126 67 781ft 0kts
20-Mar-17 15:04 34.202976 -118.360126 67 781ft 0kts
20-Mar-17 15:05 34.202976 -118.360126 67 781ft 0kts
20-Mar-17 15:06 34.202976 -118.360126 67 781ft 0kts
20-Mar-17 15:07 34.202976 -118.360126 67 781ft 0kts
20-Mar-17 15:08 34.202976 -118.360126 67 781ft 0kts
20-Mar-17 15:09 34.202976 -118.360126 67 781ft 0kts
20-Mar-17 15:10 34.202976 -118.360126 67 781ft 0kts
20-Mar-17 15:11 34.202976 -118.360126 67 781ft 0kts
20-Mar-17 15:12 34.202976 -118.360126 67 781ft 0kts
20-Mar-17 15:13 34.202976 -118.360126 67 781ft 0kts
20-Mar-17 15:14 34.202976 -118.360126 67 781ft 0kts
20-Mar-17 15:15 34.202976 -118.360126 67 781ft 0kts
20-Mar-17 15:16 34.202976 -118.360126 67 781ft 0kts
20-Mar-17 15:17 34.202976 -118.360126 67 781ft 0kts
20-Mar-17 15:18 34.202976 -118.360126 67 781ft 0kts
20-Mar-17 15:19 34.202976 -118.360126 67 781ft 0kts
20-Mar-17 15:20 34.202976 -118.360126 67 781ft 0kts
20-Mar-17 15:21 34.202976 -118.360126 67 781ft 0kts
20-Mar-17 15:22 34.202976 -118.360126 67 781ft 0kts
20-Mar-17 15:23 34.202976 -118.360126 67 781ft 0kts
20-Mar-17 15:24 34.202976 -118.360126 67 781ft 0kts
20-Mar-17 15:25 34.202976 -118.360126 67 781ft 0kts
20-Mar-17 15:26 34.202976 -118.360126 67 781ft 0kts
20-Mar-17 15:27 34.202976 -118.360126 67 781ft 0kts
20-Mar-17 15:28 34.202976 -118.360126 67 781ft 0kts
20-Mar-17 15:29 34.202976 -118.360126 67 781ft 0kts
20-Mar-17 15:30 34.202976 -118.360126 67 781ft 0kts
20-Mar-17 15:31 34.202976 -118.360126 67 781ft 0kts
20-Mar-17 15:32 34.202976 -118.360126 67 781ft 0kts
20-Mar-17 15:33 34.202976 -118.360126 67 781ft 0kts
20-Mar-17 15:34 34.202976 -118.360126 67 781ft 0kts
20-Mar-17 15:35 34.202976 -118.360126 67 781ft 0kts
20-Mar-17 15:36 34.202976 -118.360126 67 781ft 0kts
20-Mar-17 15:37 34.202976 -118.360126 67 781ft 0kts
20-Mar-17 15:38 34.202976 -118.360126 67 781ft 0kts
20-Mar-17 15:39 34.202976 -118.360126 67 781ft 0kts
20-Mar-17 15:40 34.202976 -118.360126 67 781ft 0kts
20-Mar-17 15:41 34.202976 -118.360126 67 781ft 0kts
20-Mar-17 15:42 34.202976 -118.360126 67 781ft 0kts
20-Mar-17 15:43 34.202976 -118.360126 67 781ft 0kts
20-Mar-17 15:44 34.202976 -118.360126 67 781ft 0kts
20-Mar-17 15:45 34.203066 -118.359985 34 781ft 6kts
20-Mar-17 15:46 34.207177 -118.360181 344 781ft 31kts
20-Mar-17 15:47 34.212027 -118.361516 185 781ft 4kts
20-Mar-17 15:48 34.211985 -118.361392 68 781ft 0kts
20-Mar-17 15:49 34.211985 -118.361392 68 781ft 0kts
20-Mar-17 15:50 34.211985 -118.361392 68 781ft 0kts
20-Mar-17 15:51 34.211985 -118.361392 68 781ft 0kts
20-Mar-17 15:52 34.211985 -118.361392 68 781ft 0kts
20-Mar-17 15:53 34.211985 -118.361392 68 781ft 0kts
20-Mar-17 15:54 34.211985 -118.361392 68 781ft 0kts
20-Mar-17 15:55 34.198602 -118.356299 167 1062ft 128kts
20-Mar-17 15:56 34.172095 -118.375234 223 2547ft 139kts
20-Mar-17 15:57 34.157807 -118.414353 303 3809ft 164kts
20-Mar-17 15:58 34.189042 -118.455027 310 4703ft 184kts
20-Mar-17 15:59 34.221884 -118.496523 310 6095ft 180kts
20-Mar-17 16:00 34.255671 -118.532590 347 7484ft 171kts
20-Mar-17 16:01 34.298998 -118.540882 351 8897ft 157kts
20-Mar-17 16:02 34.338341 -118.539989 9 10316ft 133kts
20-Mar-17 16:03 34.367757 -118.521093 32 10807ft 175kts
20-Mar-17 16:04 34.389491 -118.462981 82 11197ft 200kts
20-Mar-17 16:05 34.409423 -118.402873 41 12144ft 203kts
20-Mar-17 16:06 34.447886 -118.355266 52 12985ft 203kts
20-Mar-17 16:07 34.485581 -118.297876 54 12982ft 232kts
20-Mar-17 16:08 34.522428 -118.239504 55 13926ft 214kts
20-Mar-17 16:09 34.557581 -118.183333 55 14907ft 207kts
20-Mar-17 16:10 34.591768 -118.128595 55 15894ft 204kts
20-Mar-17 16:11 34.625508 -118.074493 55 16878ft 202kts
20-Mar-17 16:12 34.637630 -118.012409 86 17868ft 189kts
20-Mar-17 16:13 34.644374 -117.950830 86 18845ft 182kts
20-Mar-17 16:14 34.651406 -117.884920 86 19081ft 220kts
20-Mar-17 16:15 34.659869 -117.807029 85 19069ft 244kts
20-Mar-17 16:16 34.674506 -117.724780 75 19075ft 256kts
20-Mar-17 16:17 34.695827 -117.641898 75 19084ft 261kts
20-Mar-17 16:18 34.717141 -117.558508 75 19092ft 261kts
20-Mar-17 16:19 34.738586 -117.474369 76 19090ft 263kts
20-Mar-17 16:20 34.759957 -117.390164 76 19091ft 265kts
20-Mar-17 16:21 34.781083 -117.307207 76 19089ft 266kts
20-Mar-17 16:22 34.802651 -117.222434 77 19078ft 267kts
20-Mar-17 16:23 34.824225 -117.136749 77 19062ft 268kts
20-Mar-17 16:24 34.845891 -117.050246 77 19048ft 269kts
20-Mar-17 16:25 34.867521 -116.963564 77 19041ft 269kts
20-Mar-17 16:26 34.889095 -116.876851 77 19039ft 269kts
20-Mar-17 16:27 34.910638 -116.789908 77 19039ft 270kts
20-Mar-17 16:28 34.932279 -116.702342 76 19040ft 273kts
20-Mar-17 16:29 34.953954 -116.614345 76 19041ft 275kts
20-Mar-17 16:30 34.984709 -116.528800 63 19048ft 280kts
20-Mar-17 16:31 35.021916 -116.445492 63 19060ft 282kts
20-Mar-17 16:32 35.060177 -116.359105 63 18360ft 304kts
20-Mar-17 16:33 35.099663 -116.270588 64 17422ft 308kts
20-Mar-17 16:34 35.133647 -116.193698 64 16562ft 304kts
20-Mar-17 16:35 35.172885 -116.104442 64 15560ft 302kts
20-Mar-17 16:36 35.211842 -116.015568 64 14561ft 300kts
20-Mar-17 16:37 35.250008 -115.928274 64 13577ft 298kts
20-Mar-17 16:38 35.288366 -115.840326 64 12585ft 296kts
20-Mar-17 16:39 35.332463 -115.758327 48 11599ft 298kts
20-Mar-17 16:40 35.387806 -115.685125 48 10613ft 296kts
20-Mar-17 16:41 35.441579 -115.613384 48 10081ft 281kts
20-Mar-17 16:42 35.492355 -115.545415 48 10082ft 270kts
20-Mar-17 16:43 35.542107 -115.478653 48 10083ft 267kts
20-Mar-17 16:44 35.591388 -115.412399 48 10083ft 266kts
20-Mar-17 16:45 35.639469 -115.347487 49 10083ft 266kts
20-Mar-17 16:46 35.687979 -115.282140 49 10082ft 266kts
20-Mar-17 16:47 35.736830 -115.216083 49 10082ft 266kts
20-Mar-17 16:48 35.785619 -115.149988 48 10059ft 268kts
20-Mar-17 16:49 35.835246 -115.082710 49 10045ft 263kts
20-Mar-17 16:50 35.881359 -115.020084 49 10039ft 248kts
20-Mar-17 16:51 35.927051 -114.957872 49 10030ft 249kts
20-Mar-17 16:52 35.975764 -114.892155 41 8854ft 278kts
20-Mar-17 16:53 36.030334 -114.830684 45 7332ft 251kts
20-Mar-17 16:54 36.085303 -114.786314 23 6326ft 228kts
20-Mar-17 16:55 36.110896 -114.811732 228 5358ft 91kts
20-Mar-17 16:56 36.094541 -114.840582 228 5021ft 113kts
20-Mar-17 16:57 36.079580 -114.877223 247 4914ft 128kts
20-Mar-17 16:58 36.074901 -114.919720 255 4915ft 124kts
20-Mar-17 16:59 36.073340 -114.965168 262 4297ft 152kts
20-Mar-17 17:00 36.073689 -115.013777 261 3801ft 124kts
20-Mar-17 17:01 36.073623 -115.054159 261 3301ft 125kts
20-Mar-17 17:02 36.073615 -115.097323 263 2635ft 130kts
20-Mar-17 17:03 36.073556 -115.131714 275 2145ft 20kts
20-Mar-17 17:04 36.074706 -115.133928 359 2145ft 0kts
20-Mar-17 17:05 36.074706 -115.133928 359 2145ft 0kts
20-Mar-17 17:06 36.075604 -115.133899 1 2145ft 16kts
20-Mar-17 17:07 36.078122 -115.133750 7 2145ft 0kts
20-Mar-17 17:08 36.081225 -115.133864 331 2145ft 9kts
20-Mar-17 17:09 36.081262 -115.133934 264 2145ft 0kts

Navigation Log

Ident Type
1. KBUR Airport
2. IPIHO Fix
3. TWINE Fix
4. LANGE Fix
5. PMD Navaid
6. DAG Navaid
7. JOKUR Fix
8. DANBY Fix
9. SARAS Fix
10. WHIGG Fix
11. CRESO Fix
12. BLD Navaid
13. KLAS Airport